Time;durP1;ratioP1;P1;durP2;ratioP2;P2;SDS_P1;SDS_P2;PMS_P1;PMS_P2;Temp;Humidity;BMP_temperature;BMP_pressure;BME280_temperature;BME280_humidity;BME280_pressure;Samples;Min_cycle;Max_cycle;Signal;HPM_P1;HPM_P2
2022/05/30 00:00:02;;;;;;;4.60;2.70;;;11.10;99.90;;;;;;5071083;28;20164;-55
2022/05/30 00:02:27;;;;;;;7.30;2.93;;;11.10;99.90;;;;;;5071152;28;20200;-56
2022/05/30 00:04:53;;;;;;;7.77;3.00;;;11.20;99.90;;;;;;5070953;28;20596;-56
2022/05/30 00:07:19;;;;;;;4.63;2.80;;;11.70;99.90;;;;;;5070880;28;20201;-56
2022/05/30 00:09:48;;;;;;;6.10;2.93;;;11.00;99.90;;;;;;5071312;28;20181;-56
2022/05/30 00:12:13;;;;;;;8.67;3.00;;;10.90;99.90;;;;;;5071170;28;20175;-56
2022/05/30 00:14:39;;;;;;;6.20;2.93;;;10.80;99.90;;;;;;5070789;28;20540;-56
2022/05/30 00:17:05;;;;;;;3.50;2.70;;;10.80;99.90;;;;;;5088179;28;20223;-55
2022/05/30 00:19:31;;;;;;;6.67;2.67;;;10.80;99.90;;;;;;5090985;28;20207;-55
2022/05/30 00:21:57;;;;;;;5.17;3.23;;;10.70;99.90;;;;;;5090945;28;20172;-55
2022/05/30 00:24:23;;;;;;;6.27;2.80;;;10.80;99.90;;;;;;5090957;28;20171;-55
2022/05/30 00:26:49;;;;;;;4.20;3.00;;;;;;;;;;5090801;28;20204;-56
2022/05/30 00:29:15;;;;;;;7.10;3.50;;;10.60;99.90;;;;;;5090808;28;20191;-55
2022/05/30 00:31:40;;;;;;;4.77;2.90;;;10.90;99.90;;;;;;5090368;28;20176;-55
2022/05/30 00:34:06;;;;;;;8.83;2.83;;;10.90;99.90;;;;;;5090751;28;20168;-55
2022/05/30 00:36:32;;;;;;;4.63;3.07;;;10.90;99.90;;;;;;5090816;28;20242;-55
2022/05/30 00:38:57;;;;;;;7.83;3.10;;;10.80;99.90;;;;;;5090531;28;20187;-56
2022/05/30 00:41:23;;;;;;;7.67;2.67;;;10.80;99.90;;;;;;5090370;28;20176;-55
2022/05/30 00:43:49;;;;;;;5.27;2.73;;;10.80;99.90;;;;;;5090650;28;20176;-55
2022/05/30 00:46:18;;;;;;;9.47;3.23;;;10.70;99.90;;;;;;5090672;28;20172;-54
2022/05/30 00:48:56;;;;;;;10.80;3.03;;;10.70;99.90;;;;;;5090339;28;20211;-55
2022/05/30 00:51:31;;;;;;;4.67;3.07;;;10.70;99.90;;;;;;5090408;28;20251;-55
2022/05/30 00:53:58;;;;;;;8.90;3.30;;;10.50;99.90;;;;;;5090572;28;20167;-56
2022/05/30 00:56:37;;;;;;;10.10;3.00;;;10.70;99.90;;;;;;5090456;28;20245;-55
2022/05/30 00:59:04;;;;;;;4.50;3.07;;;10.70;99.90;;;;;;5090494;28;20174;-55
2022/05/30 01:01:32;;;;;;;6.27;3.17;;;10.70;99.90;;;;;;5090404;28;20175;-56
2022/05/30 01:06:47;;;;;;;4.83;3.03;;;10.60;99.90;;;;;;5090762;28;20171;-56
2022/05/30 01:09:30;;;;;;;7.83;3.17;;;10.70;99.90;;;;;;5090556;28;20214;-57
2022/05/30 01:11:57;;;;;;;4.90;3.00;;;10.70;99.90;;;;;;5090210;28;20183;-56
2022/05/30 01:14:26;;;;;;;5.73;3.00;;;10.80;99.90;;;;;;5090236;28;20172;-55
2022/05/30 01:16:53;;;;;;;6.60;3.20;;;10.80;99.90;;;;;;5090178;28;20222;-58
2022/05/30 01:19:41;;;;;;;4.73;2.83;;;10.90;99.90;;;;;;5090435;28;20172;-56
2022/05/30 01:22:43;;;;;;;4.07;3.10;;;11.00;99.90;;;;;;5089026;28;20639;-58
2022/05/30 01:25:37;;;;;;;6.10;3.40;;;11.00;99.90;;;;;;5090247;28;20262;-57
2022/05/30 01:28:25;;;;;;;7.17;3.20;;;11.00;99.90;;;;;;5090194;28;20223;-56
2022/05/30 01:30:51;;;;;;;4.53;3.10;;;11.20;99.90;;;;;;5090173;28;20412;-55
2022/05/30 01:33:16;;;;;;;4.57;3.10;;;10.90;99.90;;;;;;5090277;28;20632;-56
2022/05/30 01:35:43;;;;;;;8.00;3.60;;;;;;;;;;5090278;28;20175;-56
2022/05/30 01:38:08;;;;;;;10.50;3.60;;;11.20;99.90;;;;;;5090175;28;20579;-56
2022/05/30 01:40:34;;;;;;;4.53;3.13;;;11.10;99.90;;;;;;5090361;28;20254;-57
2022/05/30 01:43:00;;;;;;;6.43;3.23;;;11.30;99.90;;;;;;5091310;28;20176;-58
2022/05/30 01:45:27;;;;;;;7.50;3.43;;;11.20;99.90;;;;;;5093834;28;20262;-57
2022/05/30 01:47:53;;;;;;;7.20;2.97;;;;;;;;;;5093743;28;20215;-57
2022/05/30 01:50:22;;;;;;;6.23;2.77;;;11.20;99.90;;;;;;5093723;28;20178;-57
2022/05/30 01:52:47;;;;;;;7.13;2.90;;;11.10;99.90;;;;;;5093702;28;20699;-57
2022/05/30 01:55:13;;;;;;;5.57;2.93;;;11.00;99.90;;;;;;5093627;28;20259;-57
2022/05/30 01:57:39;;;;;;;10.40;2.93;;;11.00;99.90;;;;;;5093878;28;20578;-57
2022/05/30 02:00:07;;;;;;;4.13;2.70;;;11.00;99.90;;;;;;5093583;28;20172;-57
2022/05/30 02:02:35;;;;;;;6.33;2.77;;;11.00;99.90;;;;;;5093500;28;20198;-57
2022/05/30 02:05:01;;;;;;;4.83;2.90;;;11.00;99.90;;;;;;5093549;28;20231;-57
2022/05/30 02:07:26;;;;;;;9.17;3.37;;;10.80;99.90;;;;;;5093237;28;20192;-57
2022/05/30 02:09:52;;;;;;;5.63;3.00;;;10.80;99.90;;;;;;5093433;28;20267;-57
2022/05/30 02:12:18;;;;;;;5.03;3.00;;;10.70;99.90;;;;;;5093329;28;20632;-56
2022/05/30 02:14:44;;;;;;;5.90;2.60;;;10.70;99.90;;;;;;5093078;28;20251;-56
2022/05/30 02:17:10;;;;;;;6.23;3.30;;;10.70;99.90;;;;;;5092961;28;20242;-57
2022/05/30 02:19:41;;;;;;;5.93;3.00;;;10.40;99.90;;;;;;5093087;28;20172;-56
2022/05/30 02:22:09;;;;;;;6.07;2.90;;;10.70;99.90;;;;;;5093084;28;20171;-56
2022/05/30 02:24:35;;;;;;;5.63;2.93;;;10.70;99.90;;;;;;5093053;28;20172;-57
2022/05/30 02:27:02;;;;;;;6.77;3.17;;;10.80;99.90;;;;;;5093487;28;20180;-57
2022/05/30 02:29:27;;;;;;;4.60;2.93;;;10.80;99.90;;;;;;5092893;28;20188;-56
2022/05/30 02:31:53;;;;;;;4.83;3.03;;;10.80;99.90;;;;;;5092661;28;20240;-56
2022/05/30 02:37:03;;;;;;;6.23;2.80;;;10.90;99.90;;;;;;5092889;28;20171;-56
2022/05/30 02:39:30;;;;;;;4.50;2.83;;;10.80;99.90;;;;;;5092900;28;20175;-57
2022/05/30 02:41:56;;;;;;;5.07;3.00;;;;;;;;;;5092698;28;20176;-56
2022/05/30 02:44:24;;;;;;;7.00;3.17;;;10.80;99.90;;;;;;5092616;28;20250;-57
2022/05/30 02:46:52;;;;;;;4.40;2.70;;;10.90;99.90;;;;;;5092532;28;20164;-57
2022/05/30 02:49:19;;;;;;;7.03;2.77;;;10.80;99.90;;;;;;5092588;28;20171;-57
2022/05/30 02:51:45;;;;;;;6.83;3.07;;;10.70;99.90;;;;;;5092638;28;20176;-56
2022/05/30 02:54:11;;;;;;;5.80;2.90;;;10.60;99.90;;;;;;5092148;28;20176;-57
2022/05/30 02:56:38;;;;;;;5.67;3.07;;;10.50;99.90;;;;;;5092396;28;20214;-57
2022/05/30 02:59:04;;;;;;;5.70;2.93;;;10.40;99.90;;;;;;5092238;28;20176;-57
2022/05/30 03:01:31;;;;;;;5.30;2.77;;;10.40;99.90;;;;;;5092244;28;20164;-57
2022/05/30 03:03:59;;;;;;;6.57;2.90;;;10.30;99.90;;;;;;5092208;28;20180;-56
2022/05/30 03:06:25;;;;;;;6.57;2.97;;;10.30;99.90;;;;;;5092182;28;20219;-57
2022/05/30 03:08:52;;;;;;;5.73;3.10;;;10.20;99.90;;;;;;5092157;28;20246;-56
2022/05/30 03:11:18;;;;;;;5.27;3.30;;;10.20;99.90;;;;;;5092211;28;20259;-56
2022/05/30 03:13:44;;;;;;;6.03;2.90;;;10.10;99.90;;;;;;5092136;28;20212;-57
2022/05/30 03:16:10;;;;;;;6.23;3.00;;;10.10;99.90;;;;;;5092085;28;20224;-58
2022/05/30 03:18:36;;;;;;;7.97;3.83;;;10.10;99.90;;;;;;5092117;28;20666;-57
2022/05/30 03:21:02;;;;;;;5.23;3.20;;;10.00;99.90;;;;;;5092181;28;20167;-57
2022/05/30 03:23:28;;;;;;;7.87;3.40;;;10.00;99.90;;;;;;5091849;28;20543;-57
2022/05/30 03:25:53;;;;;;;5.70;3.30;;;10.00;99.90;;;;;;5091796;28;20175;-57
2022/05/30 03:28:19;;;;;;;4.93;3.07;;;9.90;99.90;;;;;;5091855;28;20247;-57
2022/05/30 03:30:45;;;;;;;4.23;3.00;;;9.80;99.90;;;;;;5091772;28;20170;-57
2022/05/30 03:33:11;;;;;;;8.67;3.10;;;9.90;99.90;;;;;;5091775;28;20651;-57
2022/05/30 03:35:38;;;;;;;7.70;3.20;;;9.80;99.90;;;;;;5091813;28;20172;-57
2022/05/30 03:38:05;;;;;;;5.70;3.40;;;9.80;99.90;;;;;;5091590;28;20251;-57
2022/05/30 03:40:31;;;;;;;5.07;3.27;;;9.80;99.90;;;;;;5091625;28;20166;-57
2022/05/30 03:42:57;;;;;;;5.03;3.47;;;9.80;99.90;;;;;;5091521;28;20644;-57
2022/05/30 03:45:23;;;;;;;5.00;3.50;;;9.50;99.90;;;;;;5091336;28;20168;-57
2022/05/30 03:47:49;;;;;;;5.60;3.20;;;9.80;99.90;;;;;;5091420;28;20191;-57
2022/05/30 03:50:23;;;;;;;5.23;3.07;;;9.70;99.90;;;;;;5091498;28;20647;-56
2022/05/30 03:52:50;;;;;;;5.23;3.33;;;9.60;99.90;;;;;;5091479;28;20525;-56
2022/05/30 03:55:19;;;;;;;6.37;3.30;;;9.60;99.90;;;;;;5091563;28;20171;-56
2022/05/30 03:57:45;;;;;;;6.13;3.57;;;9.60;99.90;;;;;;5091182;28;20176;-56
2022/05/30 04:00:14;;;;;;;5.67;3.57;;;9.40;99.90;;;;;;5091188;28;20176;-56
2022/05/30 04:02:40;;;;;;;9.33;4.50;;;9.60;99.90;;;;;;5091131;28;20254;-55
2022/05/30 04:05:08;;;;;;;10.97;4.00;;;9.70;99.90;;;;;;5090498;28;20302;-56
2022/05/30 04:07:35;;;;;;;6.13;4.10;;;9.60;99.90;;;;;;5091080;28;20260;-56
2022/05/30 04:10:01;;;;;;;7.27;4.10;;;9.60;99.90;;;;;;5091257;28;20172;-56
2022/05/30 04:12:27;;;;;;;11.17;4.50;;;9.60;99.90;;;;;;5090982;28;20172;-55
2022/05/30 04:14:56;;;;;;;7.23;4.23;;;9.50;99.90;;;;;;5091072;28;20170;-56
2022/05/30 04:17:23;;;;;;;9.77;4.70;;;9.60;99.90;;;;;;5090638;28;20223;-56
2022/05/30 04:19:49;;;;;;;7.77;4.87;;;9.60;99.90;;;;;;5090894;28;20168;-55
2022/05/30 04:22:15;;;;;;;11.30;5.00;;;9.60;99.90;;;;;;5090879;28;20170;-56
2022/05/30 04:24:41;;;;;;;9.57;4.80;;;9.70;99.90;;;;;;5090987;28;20180;-55
2022/05/30 04:27:07;;;;;;;13.50;4.90;;;9.60;99.90;;;;;;5090956;28;20705;-60
2022/05/30 04:29:33;;;;;;;11.73;4.80;;;9.70;99.90;;;;;;5090976;28;20171;-56
2022/05/30 04:31:59;;;;;;;9.30;4.83;;;9.70;99.90;;;;;;5089608;28;20538;-55
2022/05/30 04:34:25;;;;;;;7.53;4.30;;;9.70;99.90;;;;;;5090867;28;20284;-55
2022/05/30 04:36:51;;;;;;;8.27;4.70;;;9.70;99.90;;;;;;5091068;28;20710;-56
2022/05/30 04:39:17;;;;;;;13.30;4.50;;;9.60;99.90;;;;;;5090701;28;20195;-55
2022/05/30 04:41:43;;;;;;;7.07;5.00;;;;;;;;;;5090690;28;20219;-55
2022/05/30 04:44:08;;;;;;;9.03;5.27;;;9.50;99.90;;;;;;5090811;28;20620;-56
2022/05/30 04:46:34;;;;;;;8.23;5.03;;;9.60;99.90;;;;;;5090826;28;20184;-56
2022/05/30 04:49:00;;;;;;;7.53;4.97;;;9.40;99.90;;;;;;5090436;28;20636;-56
2022/05/30 04:51:26;;;;;;;11.17;5.30;;;9.50;99.90;;;;;;5090626;28;20624;-56
2022/05/30 04:53:52;;;;;;;7.37;4.93;;;9.60;99.90;;;;;;5090814;28;20271;-56
2022/05/30 04:56:19;;;;;;;8.77;5.77;;;9.50;99.90;;;;;;5090566;28;20200;-56
2022/05/30 04:58:46;;;;;;;11.07;5.33;;;9.50;99.90;;;;;;5089973;28;20187;-56
2022/05/30 05:01:12;;;;;;;13.50;5.40;;;9.50;99.90;;;;;;5090418;28;20207;-56
2022/05/30 05:03:39;;;;;;;9.93;5.17;;;9.50;99.90;;;;;;5090481;28;20215;-57
2022/05/30 05:06:17;;;;;;;14.80;4.80;;;9.50;99.90;;;;;;5090793;28;20180;-56
2022/05/30 05:08:53;;;;;;;8.03;4.90;;;9.60;99.90;;;;;;5090398;28;20211;-56
2022/05/30 05:11:21;;;;;;;15.90;4.60;;;9.50;99.90;;;;;;5090221;28;20170;-56
2022/05/30 05:13:47;;;;;;;10.07;4.87;;;9.60;99.90;;;;;;5089329;28;20274;-56
2022/05/30 05:16:14;;;;;;;7.97;4.93;;;9.60;99.90;;;;;;5090032;28;20269;-56
2022/05/30 05:18:40;;;;;;;9.00;4.50;;;10.10;99.90;;;;;;5093930;28;20266;-56
2022/05/30 05:21:06;;;;;;;8.63;4.33;;;9.90;99.90;;;;;;5094067;28;20547;-56
2022/05/30 05:23:32;;;;;;;10.80;4.93;;;9.90;99.90;;;;;;5093733;28;20180;-56
2022/05/30 05:26:01;;;;;;;10.83;4.40;;;10.00;99.90;;;;;;5093775;28;20233;-56
2022/05/30 05:28:27;;;;;;;8.93;4.70;;;10.10;99.90;;;;;;5092799;28;20215;-55
2022/05/30 05:30:53;;;;;;;8.03;4.53;;;10.10;99.90;;;;;;5093252;28;20171;-56
2022/05/30 05:33:19;;;;;;;7.37;4.43;;;10.30;99.90;;;;;;5093618;28;20180;-55
2022/05/30 05:35:46;;;;;;;10.10;5.07;;;10.40;99.90;;;;;;5093766;28;20180;-56
2022/05/30 05:38:13;;;;;;;7.17;4.40;;;10.50;99.90;;;;;;5093561;28;20183;-56
2022/05/30 05:40:39;;;;;;;10.87;4.80;;;10.60;99.90;;;;;;5093900;28;20195;-57
2022/05/30 05:43:06;;;;;;;9.00;4.67;;;10.70;99.90;;;;;;5093417;28;20237;-55
2022/05/30 05:45:35;;;;;;;7.33;4.43;;;10.80;99.90;;;;;;5094011;28;20233;-57
2022/05/30 05:48:01;;;;;;;10.70;4.23;;;10.70;99.90;;;;;;5093415;28;20311;-56
2022/05/30 05:50:27;;;;;;;6.83;4.10;;;10.90;99.90;;;;;;5093419;28;20661;-56
2022/05/30 05:52:56;;;;;;;6.80;4.33;;;11.00;99.90;;;;;;5093296;28;20186;-56
2022/05/30 05:55:22;;;;;;;8.87;4.40;;;10.90;99.90;;;;;;5093619;28;20179;-58
2022/05/30 05:57:48;;;;;;;10.37;4.63;;;11.00;99.90;;;;;;5084583;28;20172;-60
2022/05/30 06:00:14;;;;;;;5.80;4.30;;;11.10;99.90;;;;;;5092296;28;20330;-60
2022/05/30 06:02:40;;;;;;;8.90;4.57;;;11.00;99.90;;;;;;5084014;28;20183;-60
2022/05/30 06:05:08;;;;;;;11.27;5.13;;;11.00;99.90;;;;;;5092020;28;20176;-60
2022/05/30 06:07:36;;;;;;;12.43;4.87;;;11.10;99.90;;;;;;5092049;28;20212;-59
2022/05/30 06:10:03;;;;;;;13.97;4.60;;;11.20;99.90;;;;;;5092726;28;20687;-59
2022/05/30 06:12:28;;;;;;;17.83;5.30;;;11.00;99.90;;;;;;5092756;28;20675;-59
2022/05/30 06:14:54;;;;;;;12.67;4.77;;;11.30;99.90;;;;;;5093023;28;20176;-59
2022/05/30 06:17:20;;;;;;;14.73;5.20;;;11.30;99.90;;;;;;5093016;28;20230;-59
2022/05/30 06:19:46;;;;;;;11.30;4.67;;;11.20;99.90;;;;;;5092764;28;20187;-59
2022/05/30 06:22:12;;;;;;;9.20;4.70;;;11.20;99.90;;;;;;5092754;28;20195;-61
2022/05/30 06:24:38;;;;;;;10.37;4.60;;;11.20;99.90;;;;;;5093210;28;20224;-59
2022/05/30 06:27:06;;;;;;;17.57;4.43;;;11.30;99.90;;;;;;5092250;28;20176;-60
2022/05/30 06:29:32;;;;;;;10.63;4.20;;;11.30;99.90;;;;;;5092024;28;20187;-61
2022/05/30 06:31:59;;;;;;;18.10;4.80;;;11.30;99.90;;;;;;5092425;28;20716;-60
2022/05/30 06:34:25;;;;;;;5.77;4.40;;;11.50;99.90;;;;;;5092464;28;20233;-59
2022/05/30 06:36:51;;;;;;;10.83;4.40;;;11.40;99.90;;;;;;5092397;28;20181;-63
2022/05/30 06:39:19;;;;;;;8.67;4.73;;;11.50;99.90;;;;;;5092493;28;20644;-64
2022/05/30 06:41:48;;;;;;;7.70;4.65;;;11.70;99.90;;;;;;5092543;28;20632;-65
2022/05/30 06:44:13;;;;;;;11.73;4.77;;;11.60;99.90;;;;;;5092628;28;20168;-64
2022/05/30 06:46:39;;;;;;;8.13;4.43;;;11.40;99.90;;;;;;5091834;28;20188;-65
2022/05/30 06:49:06;;;;;;;9.77;4.90;;;11.40;99.90;;;;;;5092181;28;20217;-64
2022/05/30 06:51:34;;;;;;;12.10;4.30;;;11.70;99.90;;;;;;5085262;28;20180;-62
2022/05/30 06:54:00;;;;;;;19.10;4.10;;;11.70;99.90;;;;;;5081930;28;20180;-60
2022/05/30 06:56:32;;;;;;;16.80;4.73;;;11.70;99.90;;;;;;5082634;28;20180;-60
2022/05/30 06:58:58;;;;;;;10.73;4.57;;;11.80;99.90;;;;;;5089496;28;20163;-60
2022/05/30 07:01:31;;;;;;;9.07;4.27;;;12.00;99.90;;;;;;5086235;28;20168;-60
2022/05/30 07:03:56;;;;;;;17.37;4.60;;;12.10;99.90;;;;;;5082288;28;20168;-61
2022/05/30 07:06:28;;;;;;;13.37;4.43;;;12.10;99.90;;;;;;5080637;28;20268;-61
2022/05/30 07:08:55;;;;;;;8.23;4.20;;;12.20;99.90;;;;;;5081038;28;20218;-60
2022/05/30 07:11:22;;;;;;;9.00;4.33;;;12.30;99.90;;;;;;5083428;28;20164;-61
2022/05/30 07:13:48;;;;;;;13.00;4.40;;;12.10;99.90;;;;;;5085473;28;20183;-59
2022/05/30 07:16:15;;;;;;;10.17;4.40;;;12.20;99.90;;;;;;5082852;28;20667;-60
2022/05/30 07:18:44;;;;;;;5.90;4.13;;;12.20;99.90;;;;;;5091335;28;20656;-59
2022/05/30 07:21:13;;;;;;;10.67;4.20;;;12.40;99.90;;;;;;5091447;28;20182;-59
2022/05/30 07:23:39;;;;;;;8.10;4.30;;;12.60;99.90;;;;;;5090182;28;20172;-60
2022/05/30 07:26:10;;;;;;;9.27;3.97;;;12.60;99.90;;;;;;5091095;28;20176;-58
2022/05/30 07:28:36;;;;;;;9.13;3.67;;;12.80;99.90;;;;;;5089869;28;20212;-59
2022/05/30 07:31:07;;;;;;;9.00;2.90;;;12.90;99.90;;;;;;5085957;28;20666;-59
2022/05/30 07:33:34;;;;;;;12.60;3.65;;;13.00;99.90;;;;;;5090173;28;20611;-64
2022/05/30 07:36:02;;;;;;;9.15;2.97;;;13.10;99.90;;;;;;5089693;28;20523;-63
2022/05/30 07:38:27;;;;;;;6.07;2.60;;;13.90;99.90;;;;;;5090198;28;20180;-65
2022/05/30 07:40:53;;;;;;;7.72;2.58;;;13.60;99.90;;;;;;5090817;28;20174;-64
2022/05/30 07:43:19;;;;;;;6.40;2.65;;;13.80;99.90;;;;;;5090234;28;20171;-59
2022/05/30 07:45:46;;;;;;;5.45;2.50;;;13.90;99.90;;;;;;5090750;28;20675;-59
2022/05/30 07:48:12;;;;;;;11.23;3.15;;;14.10;99.90;;;;;;5090907;28;20268;-66
2022/05/30 07:50:38;;;;;;;10.48;2.85;;;14.10;99.90;;;;;;5091174;28;20525;-66
2022/05/30 07:53:05;;;;;;;8.32;3.00;;;14.30;99.90;;;;;;5090692;28;20183;-66
2022/05/30 07:55:31;;;;;;;8.93;2.47;;;14.60;99.90;;;;;;5090594;28;20207;-65
2022/05/30 07:58:04;;;;;;;6.18;2.70;;;14.50;99.90;;;;;;5090763;28;20167;-66
2022/05/30 08:00:35;;;;;;;14.48;2.63;;;14.60;99.90;;;;;;5089145;28;20176;-65
2022/05/30 08:03:02;;;;;;;13.98;2.72;;;14.50;99.90;;;;;;5071845;28;20553;-67
2022/05/30 08:05:28;;;;;;;11.10;2.65;;;14.70;99.90;;;;;;5083891;28;20207;-57
2022/05/30 08:07:54;;;;;;;4.97;2.42;;;14.70;99.90;;;;;;5087949;28;20244;-57
2022/05/30 08:10:20;;;;;;;4.60;2.90;;;14.70;99.90;;;;;;5090166;28;20715;-59
2022/05/30 08:12:47;;;;;;;11.55;2.95;;;15.00;99.90;;;;;;5090219;28;20175;-58
2022/05/30 08:15:14;;;;;;;12.05;3.05;;;14.90;99.90;;;;;;5089024;28;20305;-59
2022/05/30 08:17:41;;;;;;;9.68;2.75;;;15.10;99.90;;;;;;5090398;28;20314;-58
2022/05/30 08:20:10;;;;;;;5.82;2.72;;;15.00;99.90;;;;;;5090151;28;20228;-58
2022/05/30 08:22:38;;;;;;;10.43;2.35;;;15.00;99.90;;;;;;5085249;28;20598;-59
2022/05/30 08:25:07;;;;;;;6.80;2.58;;;15.00;99.90;;;;;;5090334;28;20175;-59
2022/05/30 08:27:33;;;;;;;11.27;3.15;;;15.80;99.90;;;;;;5080278;28;20689;-58
2022/05/30 08:29:59;;;;;;;8.15;2.50;;;15.00;99.90;;;;;;5083943;28;20203;-59
2022/05/30 08:32:35;;;;;;;8.90;2.95;;;15.20;99.90;;;;;;5090017;28;20172;-59
2022/05/30 08:35:03;;;;;;;9.27;5.80;;;15.50;99.90;;;;;;5072814;28;20671;-59
2022/05/30 08:37:30;;;;;;;11.43;6.63;;;15.80;99.90;;;;;;5090387;28;20203;-58
2022/05/30 08:42:51;;;;;;;5.22;3.70;;;;;;;;;;5080370;28;20182;-59
2022/05/30 08:45:21;;;;;;;7.97;3.85;;;16.30;99.90;;;;;;5073164;28;20168;-59
2022/05/30 08:47:56;;;;;;;10.70;4.22;;;15.90;99.90;;;;;;5070284;28;20211;-59
2022/05/30 08:50:26;;;;;;;5.78;3.05;;;15.40;99.90;;;;;;5070366;28;20258;-59
2022/05/30 08:53:12;;;;;;;7.53;3.50;;;15.30;99.90;;;;;;5076272;28;20225;-59
2022/05/30 08:55:55;;;;;;;5.78;2.92;;;15.10;99.90;;;;;;5094372;28;20164;-59
2022/05/30 08:58:59;;;;;;;5.85;2.92;;;14.90;99.90;;;;;;5074404;28;20180;-60
2022/05/30 09:01:31;;;;;;;6.93;3.10;;;14.70;99.90;;;;;;5087658;28;20176;-60
2022/05/30 09:04:21;;;;;;;5.35;2.92;;;14.60;99.90;;;;;;5094167;28;20184;-60
2022/05/30 09:06:56;;;;;;;8.43;3.03;;;14.50;99.90;;;;;;5094488;28;20176;-60
2022/05/30 09:09:28;;;;;;;9.70;3.17;;;14.50;99.90;;;;;;5094111;28;20222;-59
2022/05/30 09:12:17;;;;;;;8.32;3.42;;;15.40;99.90;;;;;;5094182;28;20917;-59
2022/05/30 09:14:58;;;;;;;13.52;3.47;;;14.70;99.90;;;;;;5093508;28;20250;-58
2022/05/30 09:17:37;;;;;;;8.07;3.20;;;14.10;99.90;;;;;;5091746;28;20219;-58
2022/05/30 09:20:11;;;;;;;7.45;3.40;;;14.90;99.90;;;;;;5092060;28;20227;-58
2022/05/30 09:22:38;;;;;;;14.02;3.45;;;15.10;99.90;;;;;;5092079;28;20671;-59
2022/05/30 09:27:50;;;;;;;9.77;3.17;;;15.50;99.90;;;;;;5092145;28;20276;-58
2022/05/30 09:30:24;;;;;;;6.03;2.88;;;15.80;99.90;;;;;;5092190;28;20204;-59
2022/05/30 09:33:04;;;;;;;5.40;2.92;;;15.80;99.90;;;;;;5092164;28;20218;-59
2022/05/30 09:35:32;;;;;;;5.38;3.42;;;15.60;99.90;;;;;;5091895;28;20170;-58
2022/05/30 09:38:09;;;;;;;10.35;3.38;;;15.60;99.90;;;;;;5092067;28;20172;-59
2022/05/30 09:40:39;;;;;;;10.63;4.93;;;15.50;99.90;;;;;;5091656;28;20183;-59
2022/05/30 09:43:07;;;;;;;5.05;3.08;;;15.50;99.90;;;;;;5091449;28;20156;-59
2022/05/30 09:45:33;;;;;;;7.50;3.40;;;15.40;99.90;;;;;;5092355;28;20180;-59
2022/05/30 09:48:20;;;;;;;6.50;3.10;;;15.30;99.90;;;;;;5093467;28;20298;-59
2022/05/30 09:50:52;;;;;;;9.15;3.03;;;15.10;99.90;;;;;;5093012;28;20183;-59
2022/05/30 09:53:39;;;;;;;6.65;3.40;;;14.90;99.90;;;;;;5093323;28;20203;-58
2022/05/30 09:56:05;;;;;;;5.07;3.08;;;14.70;99.90;;;;;;5093602;28;20659;-59
2022/05/30 09:58:46;;;;;;;7.85;3.47;;;14.60;99.90;;;;;;5093392;28;20172;-59
2022/05/30 10:01:21;;;;;;;4.88;3.25;;;14.60;99.90;;;;;;5093223;28;20301;-59
2022/05/30 10:03:47;;;;;;;10.48;3.15;;;14.70;99.90;;;;;;5091985;28;20227;-59
2022/05/30 10:06:22;;;;;;;9.18;4.00;;;14.80;99.90;;;;;;5093363;28;20704;-59
2022/05/30 10:08:48;;;;;;;5.28;3.78;;;14.90;99.90;;;;;;5093003;28;20651;-59
2022/05/30 10:11:34;;;;;;;7.97;3.97;;;15.40;99.90;;;;;;5093157;28;20259;-59
2022/05/30 10:14:15;;;;;;;7.45;3.45;;;15.40;99.90;;;;;;5092972;28;20229;-59
2022/05/30 10:16:41;;;;;;;8.98;3.22;;;15.60;99.90;;;;;;5092661;28;20272;-59
2022/05/30 10:19:09;;;;;;;7.18;3.47;;;15.70;99.90;;;;;;5092957;28;20176;-59
2022/05/30 10:28:15;;;;;;;4.97;3.05;;;16.10;99.90;;;;;;5092856;28;20295;-59
2022/05/30 10:30:56;;;;;;;4.43;2.97;;;16.20;99.90;;;;;;5092720;28;20199;-59
2022/05/30 10:33:39;;;;;;;7.03;2.83;;;16.20;99.90;;;;;;5092682;28;20184;-59
2022/05/30 10:36:26;;;;;;;6.40;3.15;;;16.60;99.90;;;;;;5092509;28;20225;-59
2022/05/30 10:39:11;;;;;;;9.07;3.50;;;16.70;99.90;;;;;;5092450;28;20178;-59
2022/05/30 10:41:52;;;;;;;4.75;3.22;;;17.00;99.90;;;;;;5092653;28;20171;-59
2022/05/30 10:44:22;;;;;;;6.65;3.67;;;17.10;99.90;;;;;;5091251;28;20190;-59
2022/05/30 10:47:03;;;;;;;7.20;3.80;;;16.60;99.90;;;;;;5092470;28;20184;-59
2022/05/30 10:49:41;;;;;;;5.82;3.35;;;15.80;99.90;;;;;;5092316;28;20215;-59
2022/05/30 10:52:40;;;;;;;5.35;3.75;;;15.80;99.90;;;;;;5092394;28;20168;-59
2022/05/30 10:55:11;;;;;;;4.70;3.42;;;15.70;99.90;;;;;;5092285;28;20167;-59
2022/05/30 10:57:43;;;;;;;7.22;3.63;;;15.60;99.90;;;;;;5092155;28;20175;-59
2022/05/30 11:00:17;;;;;;;6.78;3.40;;;15.50;99.90;;;;;;5090906;28;20531;-59
2022/05/30 11:02:47;;;;;;;5.82;3.17;;;15.40;99.90;;;;;;5092068;28;20644;-59
2022/05/30 11:05:51;;;;;;;6.05;3.63;;;15.30;99.90;;;;;;5092221;28;20176;-59
2022/05/30 11:08:32;;;;;;;5.97;3.20;;;15.50;99.90;;;;;;5080574;28;20296;-59
2022/05/30 11:11:16;;;;;;;7.38;2.90;;;15.40;99.90;;;;;;5092072;28;20182;-59
2022/05/30 11:13:52;;;;;;;7.72;3.10;;;15.40;99.90;;;;;;5091957;28;20168;-59
2022/05/30 11:16:18;;;;;;;9.05;2.80;;;15.50;99.90;;;;;;5091736;28;20204;-59
2022/05/30 11:19:08;;;;;;;6.43;2.67;;;15.40;99.90;;;;;;5091793;28;20658;-59
2022/05/30 11:21:45;;;;;;;4.97;2.45;;;15.10;99.90;;;;;;5091726;28;20176;-59
2022/05/30 11:24:11;;;;;;;4.32;2.55;;;15.10;99.90;;;;;;5091763;28;20593;-59
2022/05/30 11:26:40;;;;;;;4.78;1.83;;;15.00;99.90;;;;;;5091421;28;20640;-59
2022/05/30 11:29:33;;;;;;;2.65;1.23;;;14.20;99.90;;;;;;5091339;28;20294;-59
2022/05/30 11:32:10;;;;;;;2.88;1.10;;;14.30;99.90;;;;;;5091368;28;20156;-59
2022/05/30 11:34:50;;;;;;;3.28;1.13;;;14.10;99.90;;;;;;5091230;28;20233;-59
2022/05/30 11:37:25;;;;;;;7.13;1.10;;;14.00;99.90;;;;;;5091478;28;20172;-58
2022/05/30 11:40:13;;;;;;;4.28;1.13;;;14.00;99.90;;;;;;5091536;28;20224;-59
2022/05/30 11:43:16;;;;;;;6.88;1.30;;;13.90;99.90;;;;;;5091398;28;20258;-59
2022/05/30 11:45:53;;;;;;;3.55;1.33;;;13.80;99.90;;;;;;5091274;28;20643;-59
2022/05/30 11:48:58;;;;;;;3.80;1.10;;;13.60;99.90;;;;;;5091313;28;20658;-59
2022/05/30 11:51:39;;;;;;;4.10;1.30;;;13.50;99.90;;;;;;5091211;28;20224;-59
2022/05/30 11:54:04;;;;;;;3.30;1.30;;;13.50;99.90;;;;;;5091046;28;20254;-59
2022/05/30 11:56:52;;;;;;;3.38;1.30;;;13.60;99.90;;;;;;5091096;28;20199;-59
2022/05/30 11:59:30;;;;;;;2.38;1.30;;;13.50;99.90;;;;;;5091187;28;20176;-60
2022/05/30 12:01:59;;;;;;;5.10;1.27;;;13.60;99.90;;;;;;5091028;28;20167;-60
2022/05/30 12:04:44;;;;;;;3.78;1.20;;;13.70;99.90;;;;;;5091080;28;20258;-60
2022/05/30 12:07:37;;;;;;;4.07;2.30;;;14.00;99.90;;;;;;5090988;28;20217;-60
2022/05/30 12:10:11;;;;;;;6.75;1.58;;;13.90;99.90;;;;;;5090956;28;20535;-60
2022/05/30 12:13:04;;;;;;;4.57;1.05;;;14.10;99.90;;;;;;5090896;28;20163;-58
2022/05/30 12:16:05;;;;;;;3.55;1.00;;;14.20;99.90;;;;;;5090968;28;20168;-58
2022/05/30 12:24:15;;;;;;;2.60;1.13;;;14.10;99.90;;;;;;5090781;28;20175;-58
2022/05/30 12:26:56;;;;;;;10.63;1.20;;;14.40;99.90;;;;;;5090250;28;20538;-59
2022/05/30 12:29:37;;;;;;;2.00;1.02;;;14.50;99.90;;;;;;5090630;28;20219;-58
2022/05/30 12:32:21;;;;;;;1.15;0.90;;;14.60;99.90;;;;;;5090877;28;20247;-59
2022/05/30 12:35:05;;;;;;;1.65;1.13;;;14.20;99.90;;;;;;5090713;28;20167;-59
2022/05/30 12:38:02;;;;;;;3.65;1.00;;;14.30;99.90;;;;;;5090701;28;20184;-59
2022/05/30 12:40:27;;;;;;;3.03;1.30;;;14.50;99.90;;;;;;5090639;28;20179;-59
2022/05/30 12:43:08;;;;;;;4.47;1.10;;;14.40;99.90;;;;;;5090801;28;20167;-60
2022/05/30 12:45:42;;;;;;;3.38;1.10;;;14.70;99.90;;;;;;5090720;28;20215;-59
2022/05/30 12:48:33;;;;;;;3.63;0.93;;;14.80;99.90;;;;;;5090653;28;20207;-60
2022/05/30 12:51:11;;;;;;;2.90;1.08;;;15.00;99.90;;;;;;5090566;28;20172;-59
2022/05/30 12:53:55;;;;;;;3.75;1.00;;;15.00;99.90;;;;;;5090512;28;20195;-59
2022/05/30 12:56:43;;;;;;;4.53;1.25;;;14.90;99.90;;;;;;5090614;28;20163;-59
2022/05/30 12:59:29;;;;;;;4.80;1.02;;;15.00;99.90;;;;;;5090710;28;20244;-59
2022/05/30 13:01:57;;;;;;;2.20;1.05;;;14.90;99.90;;;;;;5090690;28;20229;-59
2022/05/30 13:04:29;;;;;;;4.32;1.27;;;15.30;99.90;;;;;;5090506;28;20156;-59
2022/05/30 13:06:58;;;;;;;1.52;1.08;;;15.40;99.90;;;;;;5090555;28;20180;-59
2022/05/30 13:09:35;;;;;;;2.38;1.10;;;15.70;99.90;;;;;;5090548;28;20224;-60
2022/05/30 13:12:11;;;;;;;3.80;1.20;;;15.60;99.90;;;;;;5090669;28;20312;-59
2022/05/30 13:14:36;;;;;;;5.03;1.98;;;16.00;99.90;;;;;;5090497;28;20220;-60
2022/05/30 13:17:23;;;;;;;5.10;2.08;;;16.90;99.90;;;;;;5090301;28;20219;-59
2022/05/30 13:19:58;;;;;;;4.07;2.72;;;17.70;99.90;;;;;;5090459;28;20221;-59
2022/05/30 13:22:32;;;;;;;5.38;1.38;;;18.20;99.90;;;;;;5090289;28;20216;-59
2022/05/30 13:24:59;;;;;;;3.38;0.88;;;20.50;99.90;;;;;;5090296;28;20167;-58
2022/05/30 13:27:29;;;;;;;2.55;0.75;;;20.60;99.90;;;;;;5090204;28;20183;-59
2022/05/30 13:30:02;;;;;;;1.10;0.70;;;21.90;99.90;;;;;;5090186;28;20171;-59